Time;durP1;ratioP1;P1;durP2;ratioP2;P2;SDS_P1;SDS_P2;PMS_P1;PMS_P2;Temp;Humidity;BMP_temperature;BMP_pressure;BME280_temperature;BME280_humidity;BME280_pressure;Samples;Min_cycle;Max_cycle;Signal;HPM_P1;HPM_P2
2022/11/30 00:01:30;;;;;;;111.90;56.72;;;;;;;6.55;100.00;102177.94;5028552;28;20033;-81
2022/11/30 00:03:56;;;;;;;113.43;56.25;;;;;;;6.56;100.00;102171.81;5032776;28;20023;-83
2022/11/30 00:06:23;;;;;;;105.32;55.17;;;;;;;6.58;100.00;102185.66;5031605;28;20650;-81
2022/11/30 00:08:55;;;;;;;107.80;56.38;;;;;;;6.60;100.00;102181.25;5029222;28;20034;-84
2022/11/30 00:11:24;;;;;;;120.47;57.47;;;;;;;6.56;100.00;102184.88;5025190;28;20029;-84
2022/11/30 00:13:49;;;;;;;118.25;57.63;;;;;;;6.56;100.00;102179.66;5037595;28;20029;-84
2022/11/30 00:16:14;;;;;;;121.57;57.45;;;;;;;6.57;100.00;102181.34;5042322;28;20021;-84
2022/11/30 00:18:40;;;;;;;116.30;58.83;;;;;;;6.57;100.00;102181.34;5037615;28;20024;-83
2022/11/30 00:21:09;;;;;;;117.65;57.58;;;;;;;6.58;100.00;102183.06;5055515;28;20025;-85
2022/11/30 00:23:38;;;;;;;113.60;57.85;;;;;;;6.58;100.00;102183.06;5055549;28;20010;-85
2022/11/30 00:26:05;;;;;;;116.32;57.33;;;;;;;6.57;100.00;102182.19;5052720;28;20017;-82
2022/11/30 00:28:33;;;;;;;117.15;58.13;;;;;;;6.58;100.00;102188.28;5051234;28;20795;-83
2022/11/30 00:31:01;;;;;;;114.82;55.38;;;;;;;6.58;100.00;102185.66;5051864;28;20052;-83
2022/11/30 00:33:27;;;;;;;105.72;55.97;;;;;;;6.61;100.00;102188.19;5050642;28;20048;-80
2022/11/30 00:36:00;;;;;;;104.43;56.38;;;;;;;6.61;100.00;102185.56;5044917;28;20122;-80
2022/11/30 00:38:27;;;;;;;106.55;56.45;;;;;;;6.60;100.00;102187.31;5051721;28;20105;-83
2022/11/30 00:40:53;;;;;;;116.15;57.08;;;;;;;6.60;100.00;102189.09;5041469;28;20029;-85
2022/11/30 00:43:21;;;;;;;109.35;56.55;;;;;;;6.59;100.00;102182.16;5035042;28;20383;-85
2022/11/30 00:45:46;;;;;;;112.63;57.60;;;;;;;6.58;100.00;102181.28;5025456;28;20033;-85
2022/11/30 00:48:12;;;;;;;110.50;57.50;;;;;;;6.61;100.00;102190.78;5047323;28;20052;-85
2022/11/30 00:50:37;;;;;;;104.68;54.92;;;;;;;6.62;100.00;102197.72;5032705;28;20025;-85
2022/11/30 00:53:03;;;;;;;111.90;57.20;;;;;;;6.61;100.00;102193.41;5033934;28;20021;-85
2022/11/30 00:55:30;;;;;;;107.70;57.30;;;;;;;6.60;100.00;102192.56;5030717;28;20504;-85
2022/11/30 00:57:55;;;;;;;107.65;55.55;;;;;;;6.58;100.00;102193.50;5030692;28;20505;-83
2022/11/30 01:00:22;;;;;;;111.03;56.60;;;;;;;6.59;100.00;102200.44;5030746;28;20048;-82
2022/11/30 01:02:47;;;;;;;103.25;54.95;;;;;;;6.60;100.00;102194.31;5024538;28;20119;-83
2022/11/30 01:05:12;;;;;;;108.85;55.97;;;;;;;6.60;100.00;102199.53;5019772;28;20053;-80
2022/11/30 01:07:38;;;;;;;96.68;54.38;;;;;;;6.63;100.00;102191.59;5028145;28;20803;-80
2022/11/30 01:10:05;;;;;;;108.32;55.80;;;;;;;6.60;100.00;102203.00;5031082;28;20474;-80
2022/11/30 01:12:30;;;;;;;96.28;53.45;;;;;;;6.62;100.00;102205.56;5030821;28;20036;-82
2022/11/30 01:14:55;;;;;;;104.47;54.72;;;;;;;6.59;100.00;102203.06;5030592;28;20029;-82
2022/11/30 01:17:20;;;;;;;98.80;54.30;;;;;;;6.59;100.00;102200.44;5029218;28;20021;-82
2022/11/30 01:19:46;;;;;;;105.38;54.67;;;;;;;6.60;100.00;102207.38;5030294;28;20099;-84
2022/11/30 01:22:11;;;;;;;99.15;54.15;;;;;;;6.61;100.00;102196.03;5029991;28;20548;-85
2022/11/30 01:24:36;;;;;;;98.68;53.67;;;;;;;6.62;100.00;102194.25;5029361;28;20137;-82
2022/11/30 01:27:02;;;;;;;99.88;51.65;;;;;;;6.63;100.00;102202.03;5029350;28;20030;-84
2022/11/30 01:29:27;;;;;;;99.20;51.78;;;;;;;6.60;100.00;102204.78;5028297;28;20482;-84
2022/11/30 01:31:53;;;;;;;94.32;51.25;;;;;;;6.64;100.00;102203.75;5029319;28;20041;-84
2022/11/30 01:34:21;;;;;;;92.93;50.28;;;;;;;6.63;100.00;102202.03;5030499;28;20381;-82
2022/11/30 01:36:47;;;;;;;92.78;50.28;;;;;;;6.64;100.00;102197.66;5026353;28;20116;-84
2022/11/30 01:39:13;;;;;;;92.22;49.30;;;;;;;6.63;100.00;102202.03;5029205;28;20557;-84
2022/11/30 01:41:39;;;;;;;100.28;49.83;;;;;;;6.62;100.00;102200.34;5028539;28;20049;-84
2022/11/30 01:44:04;;;;;;;85.65;49.22;;;;;;;6.62;100.00;102197.72;5028358;28;20029;-82
2022/11/30 01:46:29;;;;;;;91.47;48.78;;;;;;;6.62;100.00;102194.25;5030217;28;20025;-84
2022/11/30 01:49:17;;;;;;;86.32;46.83;;;;;;;6.63;100.00;102198.56;5028589;28;20060;-84
2022/11/30 01:51:55;;;;;;;79.45;45.53;;;;;;;6.57;100.00;102205.72;5027177;28;20115;-84
2022/11/30 01:54:25;;;;;;;86.38;46.25;;;;;;;6.55;100.00;102202.31;5011395;28;20528;-84
2022/11/30 01:57:04;;;;;;;83.78;46.00;;;;;;;6.54;100.00;102212.84;5015222;28;20017;-82
2022/11/30 01:59:30;;;;;;;86.25;46.25;;;;;;;6.51;100.00;102212.94;5030858;28;20390;-84
2022/11/30 02:01:56;;;;;;;81.80;45.78;;;;;;;6.52;100.00;102217.28;5030988;28;20021;-84
2022/11/30 02:04:25;;;;;;;77.90;45.33;;;;;;;6.53;100.00;102218.97;5028124;28;20612;-84
2022/11/30 02:06:51;;;;;;;76.20;43.13;;;;;;;6.54;100.00;102220.69;5029898;28;20018;-84
2022/11/30 02:09:19;;;;;;;72.75;43.55;;;;;;;6.52;100.00;102225.97;5029816;28;20017;-84
2022/11/30 02:11:44;;;;;;;82.60;44.08;;;;;;;6.55;100.00;102211.94;5015360;28;20030;-84
2022/11/30 02:14:29;;;;;;;78.70;45.92;;;;;;;6.58;100.00;102224.91;5011032;28;20030;-84
2022/11/30 02:17:07;;;;;;;75.53;43.35;;;;;;;6.56;100.00;102216.25;5011538;28;20080;-84
2022/11/30 02:19:59;;;;;;;75.75;42.17;;;;;;;6.57;100.00;102218.81;5029879;28;20104;-82
2022/11/30 02:22:54;;;;;;;74.25;43.00;;;;;;;6.59;100.00;102216.13;5029865;28;20025;-81
2022/11/30 02:25:50;;;;;;;72.72;41.33;;;;;;;6.55;100.00;102220.63;5006537;28;20076;-84
2022/11/30 02:28:39;;;;;;;73.43;41.70;;;;;;;6.58;100.00;102219.66;5018098;28;20033;-84
2022/11/30 02:31:10;;;;;;;75.63;42.00;;;;;;;6.50;100.00;102221.69;5010488;28;20109;-82
2022/11/30 02:33:38;;;;;;;66.28;40.53;;;;;;;6.54;100.00;102223.28;5025666;28;20029;-85
2022/11/30 02:36:05;;;;;;;69.40;41.25;;;;;;;6.53;100.00;102216.38;5027710;28;20040;-83
2022/11/30 02:38:30;;;;;;;72.15;40.47;;;;;;;6.50;100.00;102217.31;5028864;28;20032;-83
2022/11/30 02:40:56;;;;;;;70.82;40.95;;;;;;;6.52;100.00;102220.75;5028534;28;20025;-83
2022/11/30 02:43:24;;;;;;;71.38;40.63;;;;;;;6.50;100.00;102221.69;5028601;28;20740;-82
2022/11/30 02:45:55;;;;;;;80.78;41.85;;;;;;;6.51;100.00;102223.41;5013724;28;20113;-82
2022/11/30 02:48:42;;;;;;;79.10;41.47;;;;;;;6.51;100.00;102223.41;5010599;28;20449;-82
2022/11/30 02:51:11;;;;;;;65.00;39.80;;;;;;;6.52;100.00;102233.81;5028347;28;20072;-83
2022/11/30 02:53:37;;;;;;;65.57;38.55;;;;;;;6.55;100.00;102232.84;5026380;28;20049;-84
2022/11/30 02:56:03;;;;;;;66.13;38.38;;;;;;;6.54;100.00;102231.13;5027624;28;20520;-83
2022/11/30 02:58:29;;;;;;;63.83;38.95;;;;;;;6.55;100.00;102230.22;5027446;28;20071;-83
2022/11/30 03:00:55;;;;;;;67.35;39.38;;;;;;;6.54;100.00;102231.13;5028224;28;20092;-83
2022/11/30 03:03:21;;;;;;;60.75;37.65;;;;;;;6.55;100.00;102231.09;5014359;28;20125;-83
2022/11/30 03:05:47;;;;;;;61.33;36.25;;;;;;;6.52;100.00;102227.72;5017217;28;20031;-83
2022/11/30 03:08:12;;;;;;;64.57;38.25;;;;;;;6.52;100.00;102232.97;5026510;28;20041;-83
2022/11/30 03:10:37;;;;;;;58.13;36.88;;;;;;;6.54;100.00;102228.53;5027052;28;20912;-83
2022/11/30 03:13:02;;;;;;;54.55;35.88;;;;;;;6.54;100.00;102228.53;5028348;28;20025;-82
2022/11/30 03:15:28;;;;;;;53.70;35.42;;;;;;;6.53;100.00;102232.06;5027901;28;20029;-82
2022/11/30 03:17:53;;;;;;;56.15;35.45;;;;;;;6.54;100.00;102234.59;5026736;28;20021;-83
2022/11/30 03:20:21;;;;;;;57.28;35.38;;;;;;;6.51;100.00;102231.25;5012870;28;20053;-84
2022/11/30 03:22:47;;;;;;;50.70;33.75;;;;;;;6.54;100.00;102228.53;5008006;28;20030;-83
2022/11/30 03:25:12;;;;;;;52.97;34.53;;;;;;;6.54;100.00;102229.38;5028551;28;20079;-82
2022/11/30 03:27:38;;;;;;;59.08;35.90;;;;;;;6.51;100.00;102236.47;5026875;28;20024;-83
2022/11/30 03:30:04;;;;;;;52.72;34.08;;;;;;;6.52;100.00;102235.56;5026747;28;20394;-81
2022/11/30 03:32:30;;;;;;;54.00;34.70;;;;;;;6.50;100.00;102232.16;5028239;28;20036;-81
2022/11/30 03:34:55;;;;;;;53.40;34.95;;;;;;;6.50;100.00;102234.78;5033952;28;20030;-83
2022/11/30 03:37:20;;;;;;;54.90;34.22;;;;;;;6.51;100.00;102233.88;5028019;28;20025;-83
2022/11/30 03:39:46;;;;;;;53.35;33.90;;;;;;;6.44;100.00;102232.38;5028601;28;20030;-83
2022/11/30 03:42:11;;;;;;;52.95;34.17;;;;;;;6.42;100.00;102228.97;5028569;28;20049;-81
2022/11/30 03:44:36;;;;;;;52.08;33.97;;;;;;;6.39;100.00;102234.25;5027714;28;20021;-81
2022/11/30 03:47:05;;;;;;;46.60;32.00;;;;;;;6.36;100.00;102236.97;5027749;28;20083;-83
2022/11/30 03:49:30;;;;;;;46.20;31.20;;;;;;;6.32;100.00;102233.63;5028173;28;20035;-83
2022/11/30 03:51:55;;;;;;;53.95;33.28;;;;;;;6.32;100.00;102230.16;5014342;28;20117;-83
2022/11/30 03:54:21;;;;;;;53.53;33.78;;;;;;;6.26;100.00;102232.06;5028342;28;20060;-81
2022/11/30 03:56:46;;;;;;;50.63;32.42;;;;;;;6.30;100.00;102240.66;5028470;28;20029;-81
2022/11/30 03:59:12;;;;;;;48.25;32.83;;;;;;;6.31;100.00;102236.28;5027614;28;20026;-81
2022/11/30 04:01:39;;;;;;;55.30;33.97;;;;;;;6.28;100.00;102235.50;5029083;28;20034;-81
2022/11/30 04:04:06;;;;;;;54.17;33.90;;;;;;;6.28;100.00;102234.63;5026745;28;20495;-80
2022/11/30 04:06:32;;;;;;;51.00;31.90;;;;;;;6.29;100.00;102228.50;5028464;28;20022;-81
2022/11/30 04:08:58;;;;;;;55.22;33.10;;;;;;;6.29;100.00;102231.97;5019938;28;20046;-81
2022/11/30 04:11:24;;;;;;;53.80;33.03;;;;;;;6.31;100.00;102238.91;5017350;28;20051;-81
2022/11/30 04:13:49;;;;;;;50.40;32.65;;;;;;;6.32;100.00;102238.84;5028743;28;20394;-81
2022/11/30 04:16:14;;;;;;;49.55;32.15;;;;;;;6.32;100.00;102238.84;5029367;28;20061;-81
2022/11/30 04:18:40;;;;;;;48.65;32.53;;;;;;;6.29;100.00;102237.19;5026729;28;20511;-80
2022/11/30 04:21:06;;;;;;;49.45;31.83;;;;;;;6.29;100.00;102239.81;5028970;28;20044;-83
2022/11/30 04:23:35;;;;;;;46.85;32.20;;;;;;;6.28;100.00;102238.09;5028653;28;20057;-83
2022/11/30 04:26:09;;;;;;;49.42;31.27;;;;;;;6.26;100.00;102239.91;5027358;28;20037;-81
2022/11/30 04:28:35;;;;;;;55.40;33.72;;;;;;;6.26;100.00;102233.84;5028614;28;20036;-80
2022/11/30 04:31:01;;;;;;;50.72;32.70;;;;;;;6.26;100.00;102239.91;5028162;28;20021;-83
2022/11/30 04:33:27;;;;;;;53.22;33.88;;;;;;;6.26;100.00;102237.31;5029080;28;20029;-83
2022/11/30 04:35:57;;;;;;;52.15;33.53;;;;;;;6.25;100.00;102238.22;5032275;28;20080;-83
2022/11/30 04:38:24;;;;;;;52.65;32.42;;;;;;;6.23;100.00;102234.78;5031176;28;20516;-81
2022/11/30 04:40:50;;;;;;;55.42;34.28;;;;;;;6.26;100.00;102245.16;5030810;28;20045;-83
2022/11/30 04:43:15;;;;;;;55.95;33.97;;;;;;;6.27;100.00;102241.63;5014073;28;20378;-83
2022/11/30 04:45:43;;;;;;;55.53;34.35;;;;;;;6.26;100.00;102239.91;5028920;28;20021;-83
2022/11/30 04:48:08;;;;;;;59.25;34.15;;;;;;;6.26;100.00;102244.28;5029983;28;20288;-83
2022/11/30 04:50:34;;;;;;;54.15;33.58;;;;;;;6.25;100.00;102248.66;5030639;28;20059;-83
2022/11/30 04:52:59;;;;;;;53.22;32.95;;;;;;;6.23;100.00;102247.88;5031122;28;20079;-80
2022/11/30 04:55:25;;;;;;;55.67;33.90;;;;;;;6.24;100.00;102244.34;5030685;28;20033;-85
2022/11/30 04:57:50;;;;;;;49.95;32.97;;;;;;;6.23;100.00;102242.63;5024732;28;20053;-85
2022/11/30 05:00:17;;;;;;;52.03;32.95;;;;;;;6.20;100.00;102247.97;5027664;28;20056;-85
2022/11/30 05:02:43;;;;;;;46.78;31.35;;;;;;;6.23;100.00;102242.63;5030064;28;20029;-80
2022/11/30 05:05:09;;;;;;;48.63;32.03;;;;;;;6.18;100.00;102247.16;5031031;28;20063;-85
2022/11/30 05:07:35;;;;;;;50.45;31.42;;;;;;;6.18;100.00;102246.31;5028605;28;20410;-85
2022/11/30 05:10:00;;;;;;;53.15;32.97;;;;;;;6.11;100.00;102245.66;5031579;28;20052;-85
2022/11/30 05:12:25;;;;;;;44.17;31.48;;;;;;;6.11;100.00;102244.81;5030016;28;20489;-85
2022/11/30 05:14:51;;;;;;;48.08;31.10;;;;;;;6.07;100.00;102249.28;5026699;28;20080;-85
2022/11/30 05:17:17;;;;;;;53.15;31.20;;;;;;;5.98;100.00;102254.78;5024962;28;20105;-83
2022/11/30 05:19:42;;;;;;;50.65;31.88;;;;;;;5.95;100.00;102250.50;5028238;28;20028;-84
2022/11/30 05:22:08;;;;;;;53.70;31.08;;;;;;;5.95;100.00;102244.44;5028704;28;20101;-84
2022/11/30 05:24:33;;;;;;;46.30;31.40;;;;;;;5.93;100.00;102246.25;5012059;28;20053;-81
2022/11/30 05:26:59;;;;;;;47.72;32.38;;;;;;;5.92;100.00;102249.75;5019882;28;20044;-84
2022/11/30 05:29:24;;;;;;;46.92;31.15;;;;;;;5.86;100.00;102244.69;5030229;28;20037;-82
2022/11/30 05:31:49;;;;;;;50.03;31.48;;;;;;;5.83;100.00;102244.81;5030607;28;20079;-84
2022/11/30 05:34:15;;;;;;;47.53;31.60;;;;;;;5.85;100.00;102259.53;5030899;28;20111;-83
2022/11/30 05:36:40;;;;;;;47.10;30.73;;;;;;;5.80;100.00;102256.19;5029671;28;20021;-84
2022/11/30 05:39:05;;;;;;;44.40;30.55;;;;;;;5.77;100.00;102250.22;5029611;28;20117;-84
2022/11/30 05:41:31;;;;;;;50.97;31.33;;;;;;;5.72;100.00;102254.75;5030719;28;20024;-83
2022/11/30 05:43:57;;;;;;;46.88;30.00;;;;;;;5.73;100.00;102264.28;5039833;28;20022;-84
2022/11/30 05:46:22;;;;;;;43.67;30.25;;;;;;;5.74;100.00;102266.00;5031276;28;20620;-84
2022/11/30 05:48:51;;;;;;;40.05;28.67;;;;;;;5.77;100.00;102268.50;5031056;28;20163;-83
2022/11/30 05:51:19;;;;;;;42.33;29.83;;;;;;;5.72;100.00;102268.66;5031785;28;20040;-84
2022/11/30 05:53:45;;;;;;;43.97;30.42;;;;;;;5.72;100.00;102278.25;5029834;28;20029;-84
2022/11/30 05:56:13;;;;;;;52.38;31.05;;;;;;;5.68;100.00;102276.63;5030509;28;20021;-84
2022/11/30 05:58:39;;;;;;;42.90;31.25;;;;;;;5.72;100.00;102273.03;5030701;28;20177;-84
2022/11/30 06:01:05;;;;;;;45.28;31.00;;;;;;;5.72;100.00;102266.03;5030572;28;20512;-81
2022/11/30 06:03:33;;;;;;;50.28;33.50;;;;;;;5.79;100.00;102279.75;5030104;28;20025;-81
2022/11/30 06:06:00;;;;;;;49.70;33.55;;;;;;;5.78;100.00;102280.66;5030290;28;20028;-81
2022/11/30 06:08:26;;;;;;;53.42;32.55;;;;;;;5.76;100.00;102280.72;5028940;28;20049;-84
2022/11/30 06:10:52;;;;;;;51.45;32.42;;;;;;;5.77;100.00;102286.78;5030346;28;20103;-84
2022/11/30 06:13:21;;;;;;;48.08;32.45;;;;;;;5.76;100.00;102287.69;5029719;28;20104;-84
2022/11/30 06:15:46;;;;;;;45.05;31.48;;;;;;;5.77;100.00;102277.19;5046105;28;20032;-84
2022/11/30 06:18:12;;;;;;;52.25;32.38;;;;;;;5.75;100.00;102284.22;5029694;28;20390;-84
2022/11/30 06:20:38;;;;;;;52.13;31.75;;;;;;;5.78;100.00;102285.88;5029930;28;20021;-83
2022/11/30 06:23:04;;;;;;;49.95;32.55;;;;;;;5.76;100.00;102285.06;5028227;28;20033;-84
2022/11/30 06:25:30;;;;;;;52.10;31.50;;;;;;;5.77;100.00;102286.78;5018293;28;20028;-84
2022/11/30 06:27:55;;;;;;;46.15;30.63;;;;;;;5.77;100.00;102281.56;5033588;28;20033;-84
2022/11/30 06:30:21;;;;;;;48.00;31.20;;;;;;;5.79;100.00;102282.38;5028683;28;20045;-84
2022/11/30 06:32:49;;;;;;;50.33;32.25;;;;;;;5.77;100.00;102281.56;5044256;28;20405;-84
2022/11/30 06:35:14;;;;;;;49.60;31.80;;;;;;;5.74;100.00;102285.13;5029582;28;20056;-84
2022/11/30 06:37:40;;;;;;;47.60;30.60;;;;;;;5.78;100.00;102288.50;5044128;28;20061;-85
2022/11/30 06:40:07;;;;;;;50.97;32.70;;;;;;;5.75;100.00;102291.19;5028771;28;20038;-85
2022/11/30 06:42:34;;;;;;;44.35;30.70;;;;;;;5.75;100.00;102288.59;5029048;28;20025;-82
2022/11/30 06:44:59;;;;;;;44.92;31.42;;;;;;;5.76;100.00;102285.06;5029204;28;20022;-84
2022/11/30 06:47:26;;;;;;;48.17;31.67;;;;;;;5.76;100.00;102287.69;5028787;28;20037;-85
2022/11/30 06:49:52;;;;;;;43.13;30.85;;;;;;;5.80;100.00;102286.69;5029385;28;20104;-85
2022/11/30 06:52:17;;;;;;;43.00;31.10;;;;;;;5.81;100.00;102288.41;5028781;28;20047;-85
2022/11/30 06:54:43;;;;;;;44.58;31.73;;;;;;;5.80;100.00;102291.91;5043478;28;20078;-85
2022/11/30 06:57:08;;;;;;;47.50;30.92;;;;;;;5.78;100.00;102298.94;5028843;28;20029;-85
2022/11/30 06:59:35;;;;;;;49.83;31.58;;;;;;;5.80;100.00;102302.34;5027920;28;20028;-85
2022/11/30 07:02:01;;;;;;;45.42;31.23;;;;;;;5.78;100.00;102297.19;5043477;28;20091;-84
2022/11/30 07:04:26;;;;;;;43.42;31.20;;;;;;;5.80;100.00;102307.59;5026960;28;20029;-84
2022/11/30 07:06:52;;;;;;;43.85;31.23;;;;;;;5.77;100.00;102305.06;5043696;28;20021;-80
2022/11/30 07:09:17;;;;;;;45.28;32.33;;;;;;;5.84;100.00;102298.75;5023856;28;20486;-81
2022/11/30 07:11:43;;;;;;;45.95;32.00;;;;;;;5.80;100.00;102303.22;5010012;28;20022;-81
2022/11/30 07:14:08;;;;;;;51.63;32.53;;;;;;;5.79;100.00;102311.09;5009544;28;20032;-80
2022/11/30 07:16:33;;;;;;;49.22;32.45;;;;;;;5.80;100.00;102310.19;5019968;28;20026;-81
2022/11/30 07:18:59;;;;;;;49.22;32.13;;;;;;;5.79;100.00;102311.09;5013056;28;20389;-85
2022/11/30 07:21:24;;;;;;;48.95;32.83;;;;;;;5.80;100.00;102307.59;5015852;28;20063;-85
2022/11/30 07:26:34;;;;;;;47.90;32.00;;;;;;;5.81;100.00;102319.75;5019574;28;20545;-85
2022/11/30 07:28:59;;;;;;;50.20;32.97;;;;;;;5.80;100.00;102324.09;5019137;28;20030;-84
2022/11/30 07:31:29;;;;;;;46.55;31.88;;;;;;;5.82;100.00;102334.50;5017899;28;20492;-84
2022/11/30 07:33:57;;;;;;;49.30;32.15;;;;;;;5.83;100.00;102336.22;5010494;28;20688;-80
2022/11/30 07:36:25;;;;;;;46.33;31.30;;;;;;;5.83;100.00;102329.22;5029227;28;20036;-80
2022/11/30 07:38:50;;;;;;;43.90;32.25;;;;;;;5.86;100.00;102334.38;5025928;28;20440;-80
2022/11/30 07:41:15;;;;;;;46.30;32.30;;;;;;;5.87;100.00;102335.22;5010315;28;20161;-84
2022/11/30 07:43:42;;;;;;;49.35;33.95;;;;;;;5.91;100.00;102347.31;5015855;28;20030;-84
2022/11/30 07:46:11;;;;;;;55.35;35.15;;;;;;;5.88;100.00;102342.16;5013275;28;20103;-84
2022/11/30 07:48:36;;;;;;;54.33;35.78;;;;;;;5.89;100.00;102349.09;5024137;28;20037;-80
2022/11/30 07:51:04;;;;;;;46.85;33.53;;;;;;;5.91;100.00;102349.94;5014721;28;20446;-80
2022/11/30 07:53:30;;;;;;;52.97;35.30;;;;;;;5.92;100.00;102351.63;5018631;28;20041;-83
2022/11/30 07:56:03;;;;;;;49.55;34.10;;;;;;;5.93;100.00;102353.34;5028336;28;20025;-83
2022/11/30 07:58:29;;;;;;;48.00;33.72;;;;;;;5.96;100.00;102358.47;5029034;28;20148;-83
2022/11/30 08:01:03;;;;;;;51.15;34.25;;;;;;;5.96;100.00;102358.47;5028531;28;20033;-83
2022/11/30 08:03:29;;;;;;;51.55;34.45;;;;;;;5.99;100.00;102355.75;5027890;28;20452;-83
2022/11/30 08:06:00;;;;;;;51.92;35.22;;;;;;;6.00;100.00;102360.09;5043901;28;20026;-83
2022/11/30 08:08:28;;;;;;;49.30;34.45;;;;;;;6.06;100.00;102359.94;5046500;28;20057;-83
2022/11/30 08:10:55;;;;;;;49.75;33.72;;;;;;;6.02;100.00;102360.94;5031471;28;20021;-83
2022/11/30 08:13:21;;;;;;;46.22;32.60;;;;;;;6.11;100.00;102363.25;5031513;28;20099;-82
2022/11/30 08:15:46;;;;;;;49.10;33.20;;;;;;;6.10;100.00;102358.94;5032251;28;20048;-83
2022/11/30 08:18:11;;;;;;;48.65;33.10;;;;;;;6.11;100.00;102363.25;5031256;28;20045;-83
2022/11/30 08:20:36;;;;;;;52.88;35.05;;;;;;;6.12;100.00;102378.03;5047273;28;20393;-83
2022/11/30 08:23:02;;;;;;;48.20;32.50;;;;;;;6.15;100.00;102372.69;5031005;28;20096;-83
2022/11/30 08:25:28;;;;;;;49.75;33.75;;;;;;;6.14;100.00;102376.22;5030921;28;20037;-83
2022/11/30 08:27:53;;;;;;;45.22;32.03;;;;;;;6.19;100.00;102371.69;5031623;28;20017;-83
2022/11/30 08:30:23;;;;;;;51.28;32.72;;;;;;;6.23;100.00;102381.16;5030075;28;20034;-83
2022/11/30 08:32:49;;;;;;;53.97;32.97;;;;;;;6.29;100.00;102380.94;5032061;28;20021;-83
2022/11/30 08:35:14;;;;;;;54.55;34.53;;;;;;;6.27;100.00;102377.53;5031839;28;20120;-83
2022/11/30 08:37:39;;;;;;;48.55;33.28;;;;;;;6.34;100.00;102380.81;5029961;28;20389;-83
2022/11/30 08:40:05;;;;;;;45.20;33.17;;;;;;;6.37;100.00;102382.47;5046862;28;20027;-83
2022/11/30 08:42:32;;;;;;;50.13;34.42;;;;;;;6.34;100.00;102386.03;5031493;28;20017;-83
2022/11/30 08:44:57;;;;;;;42.25;32.80;;;;;;;6.43;100.00;102382.28;5030965;28;20029;-83
2022/11/30 08:47:22;;;;;;;46.45;33.45;;;;;;;6.47;100.00;102382.16;5031406;28;20438;-83
2022/11/30 08:49:48;;;;;;;45.55;33.22;;;;;;;6.46;100.00;102392.66;5047383;28;20561;-83
2022/11/30 08:52:13;;;;;;;55.55;35.10;;;;;;;6.41;100.00;102398.03;5046037;28;20091;-85
2022/11/30 08:54:43;;;;;;;46.17;31.83;;;;;;;6.46;100.00;102397.88;5038341;28;20033;-82
2022/11/30 08:57:09;;;;;;;49.65;32.78;;;;;;;6.38;100.00;102389.41;5012348;28;20434;-85
2022/11/30 08:59:34;;;;;;;51.67;33.50;;;;;;;6.39;100.00;102391.09;5011249;28;20022;-85
2022/11/30 09:01:59;;;;;;;44.05;32.22;;;;;;;6.43;100.00;102392.75;5028021;28;20581;-82
2022/11/30 09:04:25;;;;;;;44.05;32.58;;;;;;;6.50;100.00;102395.13;5011124;28;20108;-82
2022/11/30 09:06:50;;;;;;;45.55;32.72;;;;;;;6.54;100.00;102399.34;5011845;28;20022;-82
2022/11/30 09:09:16;;;;;;;51.80;32.72;;;;;;;6.55;100.00;102400.19;5012668;28;20112;-82
2022/11/30 09:11:42;;;;;;;45.47;31.45;;;;;;;6.61;100.00;102400.00;5016474;28;20087;-82
2022/11/30 09:14:08;;;;;;;41.63;30.00;;;;;;;6.59;100.00;102402.66;5026872;28;20049;-82
2022/11/30 09:16:34;;;;;;;39.78;30.33;;;;;;;6.63;100.00;102400.78;5010822;28;20045;-82
2022/11/30 09:19:00;;;;;;;39.53;29.58;;;;;;;6.64;100.00;102407.75;5012530;28;20025;-82
2022/11/30 09:21:25;;;;;;;42.30;30.55;;;;;;;6.61;100.00;102410.44;5026785;28;20367;-83
2022/11/30 09:23:51;;;;;;;41.05;30.52;;;;;;;6.61;100.00;102413.06;5011271;28;20048;-83
2022/11/30 09:26:19;;;;;;;39.92;30.48;;;;;;;6.68;100.00;102406.72;5027873;28;20030;-80
2022/11/30 09:28:46;;;;;;;42.55;31.00;;;;;;;6.66;100.00;102416.38;5023189;28;20025;-83
2022/11/30 09:31:17;;;;;;;38.42;30.73;;;;;;;6.78;100.00;102418.59;5027636;28;20021;-81
2022/11/30 09:33:43;;;;;;;41.17;30.75;;;;;;;6.83;100.00;102414.09;5020751;28;20033;-83
2022/11/30 09:36:12;;;;;;;42.88;31.85;;;;;;;6.79;100.00;102415.06;5021278;28;20065;-81
2022/11/30 09:38:41;;;;;;;42.83;31.77;;;;;;;6.75;100.00;102420.47;5026972;28;20033;-83
2022/11/30 09:41:25;;;;;;;39.40;31.80;;;;;;;6.81;100.00;102415.91;5017731;28;20109;-82
2022/11/30 09:44:19;;;;;;;39.40;32.25;;;;;;;6.81;100.00;102415.91;5029296;28;20547;-82
2022/11/30 09:47:16;;;;;;;43.25;32.05;;;;;;;6.87;100.00;102415.69;5024919;28;20037;-81
2022/11/30 09:49:44;;;;;;;39.83;32.30;;;;;;;6.83;100.00;102419.31;4959070;28;20475;-83
2022/11/30 09:52:16;;;;;;;41.35;31.13;;;;;;;6.83;100.00;102419.31;5009311;28;20104;-82
2022/11/30 09:54:43;;;;;;;40.13;31.37;;;;;;;6.85;100.00;102407.03;5017919;28;20030;-82
2022/11/30 09:57:31;;;;;;;39.95;32.25;;;;;;;6.94;100.00;102415.50;5014085;28;20947;-85
2022/11/30 09:59:58;;;;;;;36.55;30.15;;;;;;;6.89;100.00;102413.88;5010837;28;20184;-83
2022/11/30 10:02:29;;;;;;;40.13;30.58;;;;;;;6.96;100.00;102418.91;5017492;28;20108;-82
2022/11/30 10:04:56;;;;;;;39.35;29.92;;;;;;;6.93;100.00;102414.63;5025098;28;20044;-82
2022/11/30 10:07:42;;;;;;;38.22;29.88;;;;;;;7.02;100.00;102418.69;5021890;28;20379;-82
2022/11/30 10:10:31;;;;;;;40.03;31.65;;;;;;;7.08;100.00;102413.25;5034707;28;20489;-82
2022/11/30 10:13:27;;;;;;;39.10;31.17;;;;;;;7.18;100.00;102410.25;5026307;28;20032;-82
2022/11/30 10:16:21;;;;;;;36.95;29.95;;;;;;;7.21;100.00;102409.31;5017912;28;20027;-85
2022/11/30 10:18:51;;;;;;;36.03;28.92;;;;;;;7.30;100.00;102409.00;5025535;28;20030;-82
2022/11/30 10:21:42;;;;;;;36.17;30.48;;;;;;;7.31;100.00;102409.84;5010569;28;20037;-83
2022/11/30 10:24:27;;;;;;;37.85;29.60;;;;;;;7.40;100.00;102413.00;5033443;28;20117;-83
2022/11/30 10:26:55;;;;;;;41.10;32.00;;;;;;;7.40;100.00;102418.22;5037362;28;21852;-83
2022/11/30 10:29:35;;;;;;;39.75;33.00;;;;;;;7.57;100.00;102406.28;5027552;28;20499;-83
2022/11/30 10:32:16;;;;;;;40.78;32.83;;;;;;;7.68;100.00;102406.75;5029467;28;20108;-84
2022/11/30 10:34:43;;;;;;;48.17;32.85;;;;;;;7.68;100.00;102409.38;5017300;28;20049;-83
2022/11/30 10:37:11;;;;;;;41.22;31.77;;;;;;;7.85;100.00;102396.50;5012970;28;20025;-83
2022/11/30 10:39:41;;;;;;;39.72;31.42;;;;;;;7.84;100.00;102397.41;5021011;28;20026;-84
2022/11/30 10:42:12;;;;;;;35.58;31.25;;;;;;;7.90;100.00;102394.56;5018676;28;20037;-83
2022/11/30 10:44:43;;;;;;;37.80;31.20;;;;;;;7.94;100.00;102392.66;5009840;28;20396;-83
2022/11/30 10:47:30;;;;;;;40.55;31.90;;;;;;;7.96;100.00;102399.56;5011059;28;20064;-83
2022/11/30 10:49:55;;;;;;;35.70;30.58;;;;;;;7.93;100.00;102397.06;5025947;28;20033;-83
2022/11/30 10:52:40;;;;;;;40.40;32.13;;;;;;;8.04;100.00;102397.53;5030045;28;20025;-83
2022/11/30 10:55:17;;;;;;;37.10;31.95;;;;;;;8.05;100.00;102394.00;5027091;28;20029;-83
2022/11/30 10:57:44;;;;;;;37.45;31.05;;;;;;;8.11;100.00;102388.50;5026651;28;20025;-83
2022/11/30 11:00:17;;;;;;;37.08;30.55;;;;;;;8.19;100.00;102390.81;5017156;28;20033;-82
2022/11/30 11:02:49;;;;;;;;;;;;;;;8.43;100.00;102383.78;5010900;28;20042;-83
2022/11/30 11:05:19;;;;;;;39.47;30.95;;;;;;;8.45;100.00;102382.81;5010119;28;19917;-83
2022/11/30 11:07:51;;;;;;;34.10;29.15;;;;;;;8.52;100.00;102385.19;5042804;28;20536;-83
2022/11/30 11:10:41;;;;;;;34.13;29.58;;;;;;;8.66;100.00;102383.69;5029955;28;20100;-83
2022/11/30 11:13:16;;;;;;;32.70;28.45;;;;;;;8.77;100.00;102383.25;5029225;28;20040;-83
2022/11/30 11:15:55;;;;;;;32.15;28.33;;;;;;;8.84;100.00;102376.00;5029963;28;20643;-84
2022/11/30 11:18:26;;;;;;;32.92;28.42;;;;;;;8.90;100.00;102375.72;5027591;28;20028;-83